• Join FlightAware (Why Join?)
  • Login
  • US Flag 
04:01AM EDT


 

Airport Tracker/Info


-or-


 

Live Flight TrackerFlight Track Log ✈ FLG4016 ✈ 08-May-2013 ✈ KCID - KATL

Flight Track Log - Related Links

Times and Time Zones

All times are in EDT time to prevent confusion due to time zone crossing. See the FLG4016 flight status page for this flight to view local times or setup timezone preferences in your user account.

Time Position Orientation Groundspeed Altitude Reporting Facility
EDT Latitude Longitude Course Direction KTS MPH feet Rate Location/Type
05:32PM 41.8372 -91.7656 124° Southeast 243 280 4,200  Level Chicago Center
05:33PM 41.7947 -91.6919 128° Southeast 249 287 6,200 2,340 Climbing Chicago Center
05:34PM 41.6126 -91.1979 126° Southeast  Level FlightAware Approximate
05:34PM 41.7581 -91.6061 120° Southeast 266 306 9,100  Level Chicago Center
05:35PM 41.5443 -91.0718 124° Southeast  Level FlightAware Approximate
05:35PM 41.7078 -91.4950 121° Southeast 289 333 11,100  Level Chicago Center
05:36PM 41.4798 -90.9424 124° Southeast  Level FlightAware Approximate
05:36PM 41.6592 -91.3881 121° Southeast 315 362 12,700  Level Chicago Center
05:37PM 41.4173 -90.8174 124° Southeast  Level FlightAware Approximate
05:37PM 41.6100 -91.2753 120° Southeast 339 390 14,700  Level Chicago Center
05:38PM 41.5606 -91.1661 121° Southeast 347 399 16,500 1,680 Climbing Chicago Center
05:39PM 41.5097 -91.0528 121° Southeast 351 404 18,200 1,320 Climbing Chicago Center
05:40PM 41.4578 -90.9397 121° Southeast 357 411 19,300 1,080 Climbing Chicago Center
05:41PM 41.3903 -90.7964 122° Southeast 381 438 20,500 1,080 Climbing Chicago Center
05:43PM 41.2858 -90.7667 168° South 390 449 21,600 960 Climbing Chicago Center
05:44PM 41.1775 -90.7511 174° South 392 451 22,500 900 Climbing Chicago Center
05:45PM 41.0667 -90.7364 174° South 400 460 23,500 960 Climbing Chicago Center
05:46PM 40.9539 -90.7200 174° South 407 468 24,500 960 Climbing Chicago Center
05:47PM 40.8408 -90.7053 174° South 409 471 25,500 960 Climbing Chicago Center
05:48PM 40.7244 -90.6258 153° Southeast 424 488 26,600 840 Climbing Chicago Center
05:49PM 40.6906 -90.4736 106° East 433 498 27,300 720 Climbing Chicago Center
05:50PM 40.6606 -90.3189 104° East 437 503 28,100 720 Climbing Chicago Center
05:51PM 40.6269 -90.1450 104° East 441 507 28,800 720 Climbing Chicago Center
05:52PM 40.5958 -89.9892 105° East 443 510 29,600 720 Climbing Chicago Center
05:53PM 40.5631 -89.8328 105° East 447 514 30,300 660 Climbing Chicago Center
05:54PM 40.5331 -89.6758 104° East 446 513 31,000 300 Climbing Chicago Center
05:55PM 40.4997 -89.5111 105° East 448 516 31,000  Level Chicago Center
05:56PM 40.4667 -89.3469 105° East 463 533 31,000  Level Chicago Center
05:57PM 40.4261 -89.1467 105° East 473 544 31,000  Level Chicago Center
05:58PM 40.3917 -88.9811 105° East 472 543 31,000  Level Chicago Center
05:59PM 40.3569 -88.8167 105° East 468 539 31,000  Level Chicago Center
06:00PM 40.3231 -88.6528 105° East 467 537 31,000  Level Chicago Center
06:01PM 40.2853 -88.4722 105° East 468 539 31,000  Level Chicago Center
06:02PM 40.2514 -88.3100 105° East 468 539 31,000  Level Chicago Center
06:03PM 40.2172 -88.1508 106° East 463 533 31,000  Level Chicago Center
06:04PM 40.1831 -87.9914 106° East 460 529 31,000  Level Chicago Center
06:05PM 40.1531 -87.8642 107° East 461 531 31,000  Level Indianapolis Center
06:06PM 40.1114 -87.6725 106° East 461 531 31,000  Level Indianapolis Center
06:07PM 40.0769 -87.5133 106° East 458 527 31,000  Level Indianapolis Center
06:08PM 40.0403 -87.3542 107° East 459 528 31,000  Level Indianapolis Center
06:09PM 39.9797 -87.2078 118° Southeast 463 533 31,000  Level Indianapolis Center
06:10PM 39.9175 -87.0636 119° Southeast 460 529 31,000  Level Indianapolis Center
06:11PM 39.8539 -86.9192 120° Southeast 462 532 31,000  Level Indianapolis Center
06:12PM 39.7653 -86.7589 126° Southeast 460 529 31,000  Level Indianapolis Center
06:13PM 39.6844 -86.6317 130° Southeast 460 529 31,000  Level Indianapolis Center
06:14PM 39.6047 -86.5058 129° Southeast 460 529 31,000  Level Indianapolis Center
06:15PM 39.5239 -86.3811 130° Southeast 461 531 31,000  Level Indianapolis Center
06:16PM 39.4286 -86.2314 129° Southeast 457 526 31,000  Level Indianapolis Center
06:17PM 39.3472 -86.1047 130° Southeast 461 531 31,000  Level Indianapolis Center
06:18PM 39.2658 -85.9806 130° Southeast 458 527 31,000  Level Indianapolis Center
06:19PM 39.1836 -85.8542 130° Southeast 460 529 31,000  Level Indianapolis Center
06:21PM 39.1019 -85.7297 130° Southeast 460 529 31,000  Level Indianapolis Center
06:22PM 39.0194 -85.6053 130° Southeast 458 527 31,000  Level Indianapolis Center
06:23PM 38.9214 -85.4558 130° Southeast 457 526 31,000  Level Indianapolis Center
06:24PM 38.8383 -85.3317 131° Southeast 459 528 31,000  Level Indianapolis Center
06:25PM 38.7578 -85.2083 130° Southeast 454 522 31,000  Level Indianapolis Center
06:26PM 38.6753 -85.0858 131° Southeast 456 525 31,000  Level Indianapolis Center
06:27PM 38.5836 -84.9472 130° Southeast 450 518 31,000  Level Indianapolis Center
06:28PM 38.5011 -84.8258 131° Southeast 452 520 31,000  Level Indianapolis Center
06:29PM 38.4169 -84.7056 132° Southeast 455 524 31,000  Level Indianapolis Center
06:30PM 38.3364 -84.5831 130° Southeast 450 518 31,000  Level Indianapolis Center
06:31PM 38.2394 -84.4397 131° Southeast 457 526 31,000  Level Indianapolis Center
06:32PM 38.1550 -84.3189 132° Southeast 457 526 31,000  Level Indianapolis Center
06:33PM 38.0722 -84.1992 131° Southeast 451 519 31,000  Level Indianapolis Center
06:34PM 37.9886 -84.0761 131° Southeast 458 527 31,000  Level Indianapolis Center
06:35PM 37.9033 -83.9542 132° Southeast 461 531 31,000  Level Indianapolis Center
06:36PM 37.8047 -83.8100 131° Southeast 464 534 31,000  Level Indianapolis Center
06:37PM 37.7192 -83.6878 131° Southeast 464 534 31,000  Level Indianapolis Center
06:38PM 37.6333 -83.5653 131° Southeast 466 536 31,000  Level Indianapolis Center
06:39PM 37.5469 -83.4422 132° Southeast 468 539 31,000  Level Indianapolis Center
06:40PM 37.4606 -83.3206 132° Southeast 467 537 31,000  Level Indianapolis Center
06:41PM 37.3325 -83.2281 150° Southeast 476 548 31,000  Level Indianapolis Center
06:42PM 37.2044 -83.2122 174° South 465 535 31,000  Level Indianapolis Center
06:43PM 37.0764 -83.1975 175° South 465 535 31,000  Level Indianapolis Center
06:44PM 36.9478 -83.1836 175° South 467 537 31,000  Level Indianapolis Center
06:45PM 36.7994 -83.1658 175° South 466 536 31,000  Level Indianapolis Center
06:46PM 36.6714 -83.1514 175° South 466 536 31,000  Level Indianapolis Center
06:47PM 36.5428 -83.1358 174° South 466 536 31,000  Level Indianapolis Center
06:48PM 36.4950 -83.1322 177° South 475 547 31,000  Level Atlanta Center
06:49PM 36.3656 -83.1183 175° South 475 547 31,000  Level Atlanta Center
06:50PM 36.2361 -83.1044 175° South 475 547 31,000  Level Atlanta Center
06:51PM 36.1067 -83.0903 175° South 470 541 31,000  Level Atlanta Center
06:52PM 35.9794 -83.0764 175° South 470 541 31,000  Level Atlanta Center
06:53PM 35.8519 -83.0600 174° South 463 533 31,000  Level Atlanta Center
06:54PM 35.7247 -83.0692 183° South 458 527 31,000  Level Atlanta Center
06:55PM 35.5978 -83.0936 189° South 463 533 31,000 -300 Level Atlanta Center
06:56PM 35.4750 -83.1233 191° South 463 533 30,400 -1,020 Descending Atlanta Center
06:57PM 35.3519 -83.1525 191° South 468 539 29,000 -840 Descending Atlanta Center
06:58PM 35.2397 -83.1994 199° South 441 507 28,800 -600 Descending Atlanta Center
06:59PM 35.1294 -83.2667 207° Southwest 435 501 27,800 1,080 Descending Atlanta Center
07:00PM 35.0194 -83.3311 206° Southwest 441 507 31,000 -1,860 Climbing Atlanta Center
07:01PM 34.9194 -83.3828 203° Southwest 425 489 24,100 -4,500 Descending Atlanta Center
07:02PM 34.8156 -83.4417 205° Southwest 419 482 22,100 -2,040 Descending Atlanta Center
07:03PM 34.7156 -83.4981 205° Southwest 407 468 20,100 -1,320 Descending Atlanta Center
07:04PM 34.6197 -83.5542 206° Southwest 395 455 19,500 -1,140 Descending Atlanta Center
07:05PM 34.5219 -83.6025 202° Southwest 378 435 17,900 -1,500 Descending Atlanta Center
07:06PM 34.4322 -83.6533 205° Southwest 364 419 16,500 -1,500 Descending Atlanta Center
07:07PM 34.3386 -83.7067 205° Southwest 364 419 15,000 -1,440 Descending Atlanta Center
07:08PM 34.2572 -83.7522 205° Southwest 364 419 13,700 -1,440 Descending Atlanta Center
07:09PM 34.1656 -83.8028 205° Southwest 364 419 12,200 -900 Descending Atlanta Center
07:10PM 34.0864 -83.8481 205° Southwest 343 395 12,000 -540 Descending Atlanta Center
07:11PM 34.0217 -83.9133 220° Southwest 313 360 11,200 -1,200 Descending Atlanta Center
07:12PM 33.9508 -83.9586 208° Southwest 293 337 9,600 -1,140 Descending Atlanta Center
07:13PM 33.8611 -83.9589 180° South 281 323 9,000 -840 Descending Atlanta Center
07:14PM 33.7817 -83.9539 177° South 289 333 8,000 -1,320 Descending Atlanta Center
07:15PM 33.7044 -83.9714 191° South 289 333 6,400 -1,020 Descending Atlanta Center
07:16PM 33.6522 -84.0239 220° Southwest 262 302 6,000 -480 Descending Atlanta Center
07:18PM 33.6333 -84.1667 261° West 216 249 5,000 -480 Descending Atlanta TRACON